Time;durP1;ratioP1;P1;durP2;ratioP2;P2;SDS_P1;SDS_P2;PMS_P1;PMS_P2;Temp;Humidity;BMP_temperature;BMP_pressure;BME280_temperature;BME280_humidity;BME280_pressure;Samples;Min_cycle;Max_cycle;Signal;HPM_P1;HPM_P2
2023/04/16 00:01:45;;;;;;;28.13;25.23;;;11.40;99.90;;;;;;5014345;28;20450;-52
2023/04/16 00:04:12;;;;;;;30.10;24.47;;;11.40;99.90;;;;;;5032229;28;20443;-51
2023/04/16 00:06:39;;;;;;;28.27;25.37;;;11.50;99.90;;;;;;5032196;28;20856;-51
2023/04/16 00:09:07;;;;;;;27.27;24.47;;;11.00;99.90;;;;;;5031690;28;20938;-48
2023/04/16 00:11:33;;;;;;;28.73;25.77;;;11.30;99.90;;;;;;5032082;28;20435;-51
2023/04/16 00:14:00;;;;;;;30.03;27.00;;;10.90;99.90;;;;;;5032169;28;20445;-53
2023/04/16 00:16:27;;;;;;;31.40;26.93;;;11.10;99.90;;;;;;5031756;28;20408;-52
2023/04/16 00:18:54;;;;;;;28.47;25.57;;;11.30;99.90;;;;;;5031483;28;20461;-53
2023/04/16 00:21:21;;;;;;;27.47;24.67;;;11.40;99.90;;;;;;5032173;28;20878;-52
2023/04/16 00:23:47;;;;;;;28.37;25.50;;;11.10;99.90;;;;;;5032137;28;20918;-51
2023/04/16 00:26:15;;;;;;;30.10;26.07;;;10.80;99.90;;;;;;5031966;28;20436;-51
2023/04/16 00:28:44;;;;;;;30.90;26.63;;;11.40;99.90;;;;;;5031592;28;20457;-52
2023/04/16 00:31:11;;;;;;;29.07;26.00;;;11.20;99.90;;;;;;5032022;28;20435;-52
2023/04/16 00:33:37;;;;;;;30.43;26.13;;;11.20;99.90;;;;;;5032542;28;20464;-50
2023/04/16 00:36:05;;;;;;;29.87;26.10;;;11.20;99.90;;;;;;5036194;28;20463;-50
2023/04/16 00:38:31;;;;;;;29.63;26.43;;;11.40;99.90;;;;;;5035912;28;20536;-51
2023/04/16 00:40:58;;;;;;;28.97;25.97;;;11.10;99.90;;;;;;5036813;28;20492;-50
2023/04/16 00:43:27;;;;;;;33.00;27.60;;;11.20;99.90;;;;;;5019569;28;20449;-52
2023/04/16 00:45:56;;;;;;;29.60;25.50;;;11.60;99.90;;;;;;5019640;28;20463;-51
2023/04/16 00:48:23;;;;;;;29.73;26.63;;;10.60;99.90;;;;;;5038849;28;20453;-50
2023/04/16 00:50:50;;;;;;;29.40;25.40;;;11.40;99.90;;;;;;5041808;28;20437;-51
2023/04/16 00:53:17;;;;;;;29.43;26.50;;;11.50;99.90;;;;;;5024243;28;20444;-53
2023/04/16 00:55:44;;;;;;;31.27;26.67;;;11.20;99.90;;;;;;5038107;28;20949;-51
2023/04/16 00:58:11;;;;;;;30.83;27.47;;;11.00;99.90;;;;;;5035718;28;20471;-51
2023/04/16 01:00:40;;;;;;;30.07;26.97;;;11.20;99.90;;;;;;5034654;28;20511;-51
2023/04/16 01:03:07;;;;;;;28.93;25.93;;;11.40;99.90;;;;;;5036190;28;20535;-51
2023/04/16 01:05:33;;;;;;;31.30;27.67;;;11.30;99.90;;;;;;5036265;28;20433;-52
2023/04/16 01:08:00;;;;;;;29.37;26.30;;;11.30;99.90;;;;;;5036004;28;20425;-50
2023/04/16 01:10:27;;;;;;;31.33;26.23;;;11.20;99.90;;;;;;5017265;28;20546;-50
2023/04/16 01:12:53;;;;;;;29.70;26.27;;;11.50;99.90;;;;;;5017405;28;20453;-51
2023/04/16 01:15:20;;;;;;;29.80;26.63;;;11.20;99.90;;;;;;5035329;28;20420;-52
2023/04/16 01:17:48;;;;;;;32.97;26.90;;;11.10;99.90;;;;;;5017231;28;20448;-51
2023/04/16 01:20:15;;;;;;;34.50;27.60;;;10.90;99.90;;;;;;5017174;28;20989;-51
2023/04/16 01:22:43;;;;;;;28.30;25.27;;;11.30;99.90;;;;;;5017545;28;20495;-51
2023/04/16 01:25:14;;;;;;;29.00;25.83;;;11.10;99.90;;;;;;5035054;28;20444;-50
2023/04/16 01:27:40;;;;;;;30.63;26.77;;;11.30;99.90;;;;;;5017432;28;20434;-52
2023/04/16 01:30:08;;;;;;;29.77;26.70;;;11.10;99.90;;;;;;5016651;28;21008;-50
2023/04/16 01:32:57;;;;;;;29.80;25.50;;;11.40;99.90;;;;;;5033610;28;20455;-50
2023/04/16 01:35:24;;;;;;;30.97;26.37;;;10.90;99.90;;;;;;5017227;28;20464;-52
2023/04/16 01:37:52;;;;;;;29.77;26.43;;;11.30;99.90;;;;;;5035134;28;20959;-51
2023/04/16 01:40:19;;;;;;;28.80;25.70;;;11.00;99.90;;;;;;5034339;28;20483;-51
2023/04/16 01:42:46;;;;;;;27.93;25.03;;;11.20;99.90;;;;;;5034742;28;20535;-52
2023/04/16 01:45:13;;;;;;;30.13;25.93;;;11.30;99.90;;;;;;5034313;28;20445;-52
2023/04/16 01:47:40;;;;;;;26.53;23.73;;;11.20;99.90;;;;;;5034533;28;20435;-50
2023/04/16 01:50:07;;;;;;;29.97;26.70;;;11.10;99.90;;;;;;5033988;28;20427;-51
2023/04/16 01:52:34;;;;;;;28.30;24.83;;;11.10;99.90;;;;;;5033260;28;20445;-51
2023/04/16 01:55:02;;;;;;;28.67;25.57;;;11.00;99.90;;;;;;5034515;28;20439;-50
2023/04/16 01:57:29;;;;;;;27.60;24.80;;;11.00;99.90;;;;;;5016702;28;20479;-50
2023/04/16 01:59:56;;;;;;;27.87;24.97;;;11.20;99.90;;;;;;5046575;22;20507;-50
2023/04/16 02:02:26;;;;;;;29.70;26.70;;;11.30;99.90;;;;;;5032414;28;20428;-50
2023/04/16 02:04:55;;;;;;;28.30;25.30;;;11.30;99.90;;;;;;5032566;28;20948;-49
2023/04/16 02:07:22;;;;;;;28.87;25.87;;;11.30;99.90;;;;;;5033938;28;20455;-49
2023/04/16 02:09:50;;;;;;;28.63;25.00;;;10.40;99.90;;;;;;5033343;28;20481;-49
2023/04/16 02:12:18;;;;;;;26.73;24.10;;;11.00;99.90;;;;;;5032371;28;20496;-50
2023/04/16 02:14:45;;;;;;;30.20;26.77;;;11.00;99.90;;;;;;5032491;28;20449;-50
2023/04/16 02:17:14;;;;;;;29.30;24.60;;;11.30;99.90;;;;;;5032217;28;20882;-50
2023/04/16 02:19:42;;;;;;;28.70;25.53;;;10.80;99.90;;;;;;5031830;28;20478;-49
2023/04/16 02:22:10;;;;;;;28.80;24.17;;;11.10;99.90;;;;;;5032316;28;20494;-49
2023/04/16 02:24:36;;;;;;;27.57;24.57;;;11.20;99.90;;;;;;5032162;28;20937;-50
2023/04/16 02:27:07;;;;;;;28.80;25.70;;;11.30;99.90;;;;;;5033657;28;20641;-50
2023/04/16 02:29:35;;;;;;;28.80;25.70;;;10.90;99.90;;;;;;5031510;28;20468;-50
2023/04/16 02:32:10;;;;;;;31.33;26.27;;;11.10;99.90;;;;;;5033242;28;20536;-50
2023/04/16 02:34:38;;;;;;;28.33;25.23;;;10.80;99.90;;;;;;5032143;28;20465;-50
2023/04/16 02:37:05;;;;;;;28.93;24.67;;;10.50;99.90;;;;;;5032459;28;20457;-49
2023/04/16 02:39:32;;;;;;;28.97;25.90;;;11.00;99.90;;;;;;5031527;28;20472;-49
2023/04/16 02:42:01;;;;;;;30.23;26.40;;;11.10;99.90;;;;;;5033453;28;20500;-50
2023/04/16 02:44:28;;;;;;;31.07;26.97;;;11.10;99.90;;;;;;5032014;28;20464;-49
2023/04/16 02:46:56;;;;;;;31.40;27.47;;;11.10;99.90;;;;;;5033044;28;20409;-49
2023/04/16 02:49:22;;;;;;;33.83;27.83;;;11.00;99.90;;;;;;5031078;28;20478;-51
2023/04/16 02:51:49;;;;;;;29.93;26.90;;;11.10;99.90;;;;;;5032935;28;20452;-49
2023/04/16 02:54:15;;;;;;;32.67;29.17;;;10.80;99.90;;;;;;5033015;28;20442;-50
2023/04/16 02:56:42;;;;;;;32.03;28.50;;;11.00;99.90;;;;;;5030895;28;20456;-49
2023/04/16 02:59:09;;;;;;;34.80;29.87;;;10.70;99.90;;;;;;5032317;28;21004;-49
2023/04/16 03:01:35;;;;;;;34.30;28.90;;;11.10;99.90;;;;;;5031819;28;20583;-50
2023/04/16 03:04:04;;;;;;;36.63;28.07;;;11.30;99.90;;;;;;5031502;28;20513;-51
2023/04/16 03:06:31;;;;;;;35.70;29.70;;;11.00;99.90;;;;;;5031646;28;20448;-49
2023/04/16 03:08:58;;;;;;;34.13;29.20;;;10.90;99.90;;;;;;5031204;28;20879;-50
2023/04/16 03:11:25;;;;;;;32.10;28.03;;;10.70;99.90;;;;;;5032823;28;20441;-51
2023/04/16 03:13:51;;;;;;;37.73;30.80;;;10.90;99.90;;;;;;5032693;28;20417;-50
2023/04/16 03:16:18;;;;;;;32.77;28.33;;;10.30;99.90;;;;;;5032520;28;20436;-50
2023/04/16 03:18:45;;;;;;;35.40;30.73;;;10.70;99.90;;;;;;5032111;28;20530;-50
2023/04/16 03:21:12;;;;;;;39.87;30.07;;;10.20;99.90;;;;;;5032227;28;20466;-49
2023/04/16 03:23:39;;;;;;;36.40;30.43;;;10.50;99.90;;;;;;5031251;28;20453;-49
2023/04/16 03:26:06;;;;;;;36.50;29.40;;;10.80;99.90;;;;;;5032347;28;20929;-50
2023/04/16 03:28:33;;;;;;;33.43;29.73;;;10.40;99.90;;;;;;5030687;28;20454;-50
2023/04/16 03:31:00;;;;;;;35.77;30.47;;;10.70;99.90;;;;;;5030970;28;20461;-49
2023/04/16 03:33:26;;;;;;;36.07;28.37;;;10.70;99.90;;;;;;5032056;28;20525;-51
2023/04/16 03:35:57;;;;;;;38.63;28.47;;;10.30;99.90;;;;;;5032753;28;20433;-52
2023/04/16 03:38:26;;;;;;;34.30;29.07;;;10.60;99.90;;;;;;5030762;28;20974;-49
2023/04/16 03:40:55;;;;;;;33.17;28.10;;;10.90;99.90;;;;;;5030773;28;20539;-49
2023/04/16 03:43:22;;;;;;;31.53;26.20;;;10.70;99.90;;;;;;5030782;28;20924;-48
2023/04/16 03:45:49;;;;;;;32.23;26.00;;;10.70;99.90;;;;;;5030607;28;20488;-51
2023/04/16 03:48:17;;;;;;;31.13;25.60;;;10.60;99.90;;;;;;5030226;28;20435;-49
2023/04/16 03:50:46;;;;;;;31.23;25.10;;;10.30;99.90;;;;;;5030588;28;20469;-49
2023/04/16 03:53:13;;;;;;;35.50;27.33;;;10.70;99.90;;;;;;5030660;28;20430;-50
2023/04/16 03:55:42;;;;;;;32.60;26.07;;;10.80;99.90;;;;;;5030412;28;20457;-49
2023/04/16 03:58:09;;;;;;;33.40;25.23;;;10.50;99.90;;;;;;5030053;28;20442;-50
2023/04/16 04:00:36;;;;;;;34.87;27.17;;;10.70;99.90;;;;;;5030149;28;20486;-49
2023/04/16 04:03:11;;;;;;;31.83;27.60;;;10.80;99.90;;;;;;5030235;28;20812;-50
2023/04/16 04:05:39;;;;;;;28.93;25.83;;;10.50;99.90;;;;;;5031776;28;20522;-50
2023/04/16 04:08:08;;;;;;;36.00;27.70;;;10.70;99.90;;;;;;5031215;28;20923;-52
2023/04/16 04:10:35;;;;;;;33.23;25.93;;;10.60;99.90;;;;;;5031936;28;20489;-50
2023/04/16 04:13:06;;;;;;;34.03;28.10;;;10.70;99.90;;;;;;5030245;28;20806;-51
2023/04/16 04:15:34;;;;;;;36.00;28.60;;;10.80;99.90;;;;;;5030364;28;20439;-50
2023/04/16 04:18:01;;;;;;;36.00;27.80;;;10.50;99.90;;;;;;5030113;28;20456;-49
2023/04/16 04:20:27;;;;;;;34.27;27.07;;;10.50;99.90;;;;;;5029754;28;20460;-49
2023/04/16 04:22:54;;;;;;;36.23;28.90;;;11.00;99.90;;;;;;5031865;28;20435;-49
2023/04/16 04:25:24;;;;;;;35.43;28.40;;;10.60;99.90;;;;;;5030136;28;20822;-49
2023/04/16 04:27:51;;;;;;;32.57;27.73;;;10.50;99.90;;;;;;5030156;28;20407;-49
2023/04/16 04:30:19;;;;;;;36.80;28.40;;;10.50;99.90;;;;;;5029572;28;20472;-50
2023/04/16 04:32:46;;;;;;;37.03;29.20;;;11.10;99.90;;;;;;5030275;28;20531;-50
2023/04/16 04:35:13;;;;;;;40.83;28.10;;;10.60;99.90;;;;;;5030033;28;20523;-50
2023/04/16 04:37:41;;;;;;;36.00;27.87;;;10.50;99.90;;;;;;5030359;28;20461;-48
2023/04/16 04:40:14;;;;;;;39.17;29.97;;;10.80;99.90;;;;;;5029679;28;20495;-49
2023/04/16 04:42:41;;;;;;;37.30;29.10;;;10.50;99.90;;;;;;5030162;28;20471;-48
2023/04/16 04:45:10;;;;;;;40.53;29.17;;;10.70;99.90;;;;;;5030012;28;20839;-50
2023/04/16 04:47:38;;;;;;;37.87;28.77;;;10.30;99.90;;;;;;5030320;28;20942;-50
2023/04/16 04:50:06;;;;;;;43.13;31.47;;;10.90;99.90;;;;;;5029715;28;20591;-50
2023/04/16 04:52:33;;;;;;;41.03;30.90;;;10.60;99.90;;;;;;5030253;28;20450;-49
2023/04/16 04:55:01;;;;;;;35.87;29.47;;;10.60;99.90;;;;;;5030321;28;20453;-50
2023/04/16 04:57:29;;;;;;;38.57;28.77;;;10.50;99.90;;;;;;5030782;28;20417;-50
2023/04/16 04:59:56;;;;;;;37.17;29.37;;;10.50;99.90;;;;;;5029553;28;20490;-48
2023/04/16 05:02:23;;;;;;;38.80;30.83;;;10.50;99.90;;;;;;5030262;28;20453;-50
2023/04/16 05:04:51;;;;;;;38.33;29.30;;;10.40;99.90;;;;;;5032034;28;20423;-49
2023/04/16 05:07:17;;;;;;;39.77;29.37;;;10.90;99.90;;;;;;5032358;28;20453;-49
2023/04/16 05:09:44;;;;;;;42.23;30.30;;;10.70;99.90;;;;;;5031452;28;20449;-49
2023/04/16 05:12:10;;;;;;;38.73;29.83;;;10.70;99.90;;;;;;5031762;28;20439;-50
2023/04/16 05:14:37;;;;;;;41.17;30.43;;;10.00;99.90;;;;;;5031626;28;20435;-50
2023/04/16 05:17:04;;;;;;;37.80;29.40;;;10.90;99.90;;;;;;5032040;28;20433;-49
2023/04/16 05:19:30;;;;;;;37.40;28.80;;;10.40;99.90;;;;;;5030847;28;20539;-49
2023/04/16 05:21:59;;;;;;;39.87;27.57;;;10.60;99.90;;;;;;5034448;28;20473;-50
2023/04/16 05:24:25;;;;;;;38.10;29.70;;;10.80;99.90;;;;;;5035324;28;20451;-50
2023/04/16 05:26:52;;;;;;;36.97;28.30;;;10.60;99.90;;;;;;5033771;28;20443;-50
2023/04/16 05:29:18;;;;;;;36.40;28.20;;;10.60;99.90;;;;;;5034594;28;20452;-50
2023/04/16 05:31:45;;;;;;;36.83;27.90;;;10.60;99.90;;;;;;5033419;28;21003;-49
2023/04/16 05:34:12;;;;;;;36.03;28.00;;;10.20;99.90;;;;;;5034556;28;20444;-49
2023/04/16 05:36:38;;;;;;;34.97;27.00;;;10.50;99.90;;;;;;5034762;28;20433;-50
2023/04/16 05:39:06;;;;;;;34.83;26.53;;;10.40;99.90;;;;;;5034152;28;20455;-49
2023/04/16 05:41:36;;;;;;;34.13;26.20;;;10.40;99.90;;;;;;5035436;28;20561;-55
2023/04/16 05:44:02;;;;;;;37.23;27.03;;;10.60;99.90;;;;;;5033180;28;21036;-48
2023/04/16 05:46:30;;;;;;;36.23;26.87;;;10.60;99.90;;;;;;5034341;28;20473;-50
2023/04/16 05:48:56;;;;;;;34.43;25.63;;;10.60;99.90;;;;;;5033825;28;20435;-49
2023/04/16 05:51:24;;;;;;;33.80;26.20;;;10.50;99.90;;;;;;5034502;28;20402;-49
2023/04/16 05:53:51;;;;;;;33.13;25.53;;;10.80;99.90;;;;;;5034098;28;20454;-50
2023/04/16 05:56:19;;;;;;;35.57;26.80;;;10.50;99.90;;;;;;5032634;28;20456;-50
2023/04/16 05:58:46;;;;;;;29.33;23.40;;;10.70;99.90;;;;;;5033572;28;20442;-50
2023/04/16 06:01:13;;;;;;;34.57;25.97;;;11.20;99.90;;;;;;5033923;28;20450;-50
2023/04/16 06:03:39;;;;;;;32.17;24.37;;;10.60;99.90;;;;;;5033979;28;20423;-49
2023/04/16 06:06:07;;;;;;;29.60;24.27;;;10.50;99.90;;;;;;5033860;28;20435;-49
2023/04/16 06:08:34;;;;;;;31.10;25.17;;;11.10;99.90;;;;;;5033601;28;20433;-50
2023/04/16 06:11:01;;;;;;;31.83;24.30;;;10.70;99.90;;;;;;5033758;28;20438;-50
2023/04/16 06:13:28;;;;;;;30.83;24.10;;;10.50;99.90;;;;;;5033862;28;20431;-50
2023/04/16 06:15:55;;;;;;;34.27;24.73;;;10.70;99.90;;;;;;5033732;28;20417;-51
2023/04/16 06:18:22;;;;;;;30.60;24.63;;;10.80;99.90;;;;;;5033471;28;20439;-50
2023/04/16 06:20:48;;;;;;;31.77;25.47;;;10.70;99.90;;;;;;5032217;28;20486;-51
2023/04/16 06:23:15;;;;;;;26.87;23.13;;;11.10;99.90;;;;;;5033627;28;20447;-49
2023/04/16 06:25:42;;;;;;;27.03;24.00;;;10.70;99.90;;;;;;5033726;28;20437;-51
2023/04/16 06:28:08;;;;;;;28.90;23.17;;;10.70;99.90;;;;;;5033232;28;20563;-50
2023/04/16 06:30:36;;;;;;;26.80;23.63;;;10.80;99.90;;;;;;5033493;28;20436;-52
2023/04/16 06:33:03;;;;;;;28.57;23.70;;;11.20;99.90;;;;;;5033326;28;20432;-50
2023/04/16 06:35:29;;;;;;;33.97;25.10;;;10.40;99.90;;;;;;5033268;28;20452;-49
2023/04/16 06:37:56;;;;;;;31.63;23.87;;;10.60;99.90;;;;;;5033486;28;20421;-49
2023/04/16 06:40:23;;;;;;;30.37;22.57;;;10.70;99.90;;;;;;5033024;28;20464;-48
2023/04/16 06:42:49;;;;;;;27.93;22.40;;;10.90;99.90;;;;;;5031875;28;20476;-49
2023/04/16 06:45:16;;;;;;;27.27;23.00;;;10.50;99.90;;;;;;5033138;28;20440;-50
2023/04/16 06:47:45;;;;;;;33.70;23.73;;;10.80;99.90;;;;;;5033305;28;20460;-50
2023/04/16 06:50:11;;;;;;;30.23;23.83;;;11.00;99.90;;;;;;5032640;28;20479;-49
2023/04/16 06:52:38;;;;;;;28.00;24.10;;;10.80;99.90;;;;;;5033077;28;20784;-49
2023/04/16 06:55:07;;;;;;;32.73;24.40;;;10.80;99.90;;;;;;5032878;28;20448;-49
2023/04/16 06:57:33;;;;;;;31.30;24.57;;;10.90;99.90;;;;;;5032827;28;20417;-50
2023/04/16 07:00:00;;;;;;;28.60;23.40;;;10.80;99.90;;;;;;5032447;28;20572;-49
2023/04/16 07:02:27;;;;;;;28.77;22.57;;;10.80;99.90;;;;;;5032828;28;20554;-50
2023/04/16 07:04:55;;;;;;;33.70;24.60;;;10.60;99.90;;;;;;5032755;28;20438;-49
2023/04/16 07:07:21;;;;;;;29.17;24.13;;;11.50;99.90;;;;;;5032685;28;20442;-49
2023/04/16 07:09:48;;;;;;;31.83;23.73;;;10.90;99.90;;;;;;5032417;28;20452;-50
2023/04/16 07:12:15;;;;;;;26.80;22.40;;;11.30;99.90;;;;;;5032991;28;20462;-49
2023/04/16 07:14:41;;;;;;;24.50;21.40;;;11.20;99.90;;;;;;5032698;28;20436;-49
2023/04/16 07:17:08;;;;;;;28.13;23.50;;;11.00;99.90;;;;;;5031048;28;20448;-51
2023/04/16 07:19:35;;;;;;;29.53;22.87;;;10.70;99.90;;;;;;5031935;28;20449;-50
2023/04/16 07:22:04;;;;;;;31.40;22.40;;;10.80;99.90;;;;;;5031129;28;20478;-49
2023/04/16 07:24:31;;;;;;;31.70;24.53;;;11.20;99.90;;;;;;5032338;28;20938;-50
2023/04/16 07:26:57;;;;;;;29.17;23.33;;;10.50;99.90;;;;;;5032396;28;20817;-49
2023/04/16 07:29:24;;;;;;;28.60;22.43;;;11.10;99.90;;;;;;5032164;28;21009;-49
2023/04/16 07:31:51;;;;;;;28.30;23.57;;;10.90;99.90;;;;;;5032701;28;20413;-49
2023/04/16 07:34:18;;;;;;;29.83;21.20;;;10.80;99.90;;;;;;5032244;28;20414;-49
2023/04/16 07:36:44;;;;;;;30.33;23.67;;;10.80;99.90;;;;;;5032489;28;20460;-50
2023/04/16 07:39:12;;;;;;;26.97;22.57;;;10.80;99.90;;;;;;5032215;28;20464;-49
2023/04/16 07:41:40;;;;;;;30.33;22.20;;;11.00;99.90;;;;;;5031362;28;20480;-50
2023/04/16 07:44:06;;;;;;;31.17;24.70;;;11.10;99.90;;;;;;5030862;28;20499;-52
2023/04/16 07:46:33;;;;;;;32.87;23.80;;;10.90;99.90;;;;;;5032150;28;20443;-49
2023/04/16 07:49:00;;;;;;;29.23;22.77;;;11.00;99.90;;;;;;5031863;28;20452;-49
2023/04/16 07:51:27;;;;;;;28.60;22.53;;;10.90;99.90;;;;;;5032242;28;20498;-51
2023/04/16 07:53:53;;;;;;;29.70;23.70;;;11.10;99.90;;;;;;5032207;28;20448;-49
2023/04/16 07:56:21;;;;;;;28.90;23.57;;;11.20;99.90;;;;;;5031997;28;20524;-50
2023/04/16 07:58:48;;;;;;;28.33;23.37;;;11.30;99.90;;;;;;5031432;28;20428;-49
2023/04/16 08:01:15;;;;;;;28.57;21.97;;;11.10;99.90;;;;;;5073334;22;20503;-52
2023/04/16 08:03:42;;;;;;;29.53;22.47;;;11.50;99.90;;;;;;5052242;28;20985;-51
2023/04/16 08:06:09;;;;;;;27.83;21.73;;;11.10;99.90;;;;;;5051606;28;20775;-52
2023/04/16 08:08:35;;;;;;;34.27;22.93;;;11.10;99.90;;;;;;5051394;28;20935;-52
2023/04/16 08:11:02;;;;;;;34.90;22.60;;;10.60;99.90;;;;;;5052228;28;20964;-50
2023/04/16 08:13:30;;;;;;;29.13;22.03;;;10.60;99.90;;;;;;5051882;28;20542;-53
2023/04/16 08:15:57;;;;;;;30.33;23.03;;;11.20;99.90;;;;;;5051800;28;20840;-51
2023/04/16 08:18:24;;;;;;;27.07;22.13;;;10.50;99.90;;;;;;5051790;28;20443;-53
2023/04/16 08:20:50;;;;;;;33.20;22.10;;;11.00;99.90;;;;;;5051800;28;20456;-52
2023/04/16 08:23:17;;;;;;;27.93;20.20;;;11.00;99.90;;;;;;5051953;28;20904;-51
2023/04/16 08:25:44;;;;;;;25.17;21.00;;;11.00;99.90;;;;;;5052417;28;20434;-51
2023/04/16 08:28:10;;;;;;;28.40;23.47;;;10.60;99.90;;;;;;5054952;28;20799;-52
2023/04/16 08:30:39;;;;;;;32.27;23.07;;;11.00;99.90;;;;;;5053538;28;20855;-50
2023/04/16 08:33:05;;;;;;;29.77;21.83;;;11.20;99.90;;;;;;5056012;28;20845;-51
2023/04/16 08:35:32;;;;;;;30.77;21.70;;;11.20;99.90;;;;;;5059161;28;20440;-51
2023/04/16 08:38:00;;;;;;;30.07;22.90;;;10.50;99.90;;;;;;5055140;28;20440;-51
2023/04/16 08:40:28;;;;;;;29.73;22.80;;;10.90;99.90;;;;;;5054649;28;20441;-51
2023/04/16 08:42:59;;;;;;;31.03;22.60;;;11.00;99.90;;;;;;5051925;28;20839;-51
2023/04/16 08:45:27;;;;;;;29.10;23.60;;;11.20;99.90;;;;;;5051988;28;20436;-51
2023/04/16 08:47:55;;;;;;;28.17;21.70;;;11.10;99.90;;;;;;5051776;28;20817;-51
2023/04/16 08:50:24;;;;;;;30.50;22.90;;;11.10;99.90;;;;;;5051634;28;20452;-50
2023/04/16 08:52:52;;;;;;;27.20;21.40;;;10.80;99.90;;;;;;5051704;28;20432;-51
2023/04/16 08:55:22;;;;;;;34.50;25.00;;;11.00;99.90;;;;;;5053580;28;20440;-52
2023/04/16 08:57:52;;;;;;;28.30;23.07;;;11.10;99.90;;;;;;5056045;28;20940;-52
2023/04/16 09:00:19;;;;;;;34.37;24.13;;;11.10;99.90;;;;;;5055187;28;20482;-52
2023/04/16 09:02:46;;;;;;;30.10;23.40;;;11.20;99.90;;;;;;5055318;28;20466;-51
2023/04/16 09:05:16;;;;;;;27.67;23.13;;;11.80;99.90;;;;;;5055330;28;20435;-54
2023/04/16 09:07:44;;;;;;;27.20;22.70;;;11.50;99.90;;;;;;5054259;28;21015;-50
2023/04/16 09:10:12;;;;;;;30.10;21.13;;;11.40;99.90;;;;;;5055274;28;20451;-50
2023/04/16 09:12:40;;;;;;;25.63;20.73;;;11.20;99.90;;;;;;5055576;28;20788;-53
2023/04/16 09:15:09;;;;;;;26.00;21.57;;;11.80;99.90;;;;;;5055076;28;20442;-51
2023/04/16 09:17:36;;;;;;;29.30;22.10;;;11.50;99.90;;;;;;5055060;28;20442;-50
2023/04/16 09:20:04;;;;;;;27.00;22.73;;;11.40;99.90;;;;;;5054504;28;20459;-52
2023/04/16 09:22:32;;;;;;;24.20;21.27;;;11.60;99.90;;;;;;5054788;28;20451;-51
2023/04/16 09:24:59;;;;;;;25.63;20.07;;;11.50;99.90;;;;;;5054827;28;20519;-51
2023/04/16 09:27:26;;;;;;;26.00;20.20;;;11.90;99.90;;;;;;5054571;28;20935;-50
2023/04/16 09:29:53;;;;;;;23.20;20.40;;;11.70;99.90;;;;;;5054222;28;20457;-53
2023/04/16 09:32:25;;;;;;;21.87;19.40;;;11.80;99.90;;;;;;5054898;28;20438;-52
2023/04/16 09:34:56;;;;;;;25.07;21.23;;;11.80;99.90;;;;;;5054728;28;20923;-53
2023/04/16 09:37:23;;;;;;;23.20;20.17;;;11.60;99.90;;;;;;5055018;28;21017;-52
2023/04/16 09:39:56;;;;;;;21.93;19.20;;;11.50;99.90;;;;;;5054526;28;20517;-53
2023/04/16 09:42:24;;;;;;;24.50;20.37;;;11.80;99.90;;;;;;5054456;28;20475;-51
2023/04/16 09:44:51;;;;;;;22.23;19.83;;;11.70;99.90;;;;;;5054366;28;20400;-52
2023/04/16 09:47:17;;;;;;;23.10;20.73;;;11.70;99.90;;;;;;5054488;28;20508;-51
2023/04/16 09:49:45;;;;;;;23.23;20.13;;;11.80;99.90;;;;;;5054077;28;20460;-52
2023/04/16 09:52:14;;;;;;;23.33;20.87;;;12.10;99.90;;;;;;5054557;28;20434;-53
2023/04/16 09:54:46;;;;;;;25.30;21.77;;;11.70;99.90;;;;;;5054027;28;20444;-52
2023/04/16 09:57:14;;;;;;;23.83;20.50;;;11.80;99.90;;;;;;5054414;28;20528;-51
2023/04/16 09:59:41;;;;;;;21.90;19.60;;;11.70;99.90;;;;;;5054178;28;20949;-52
2023/04/16 10:02:08;;;;;;;24.93;21.10;;;11.50;99.90;;;;;;5053956;28;20434;-52
2023/04/16 10:04:46;;;;;;;24.70;20.70;;;12.10;99.90;;;;;;5054192;28;20444;-51
2023/04/16 10:07:13;;;;;;;23.87;21.37;;;12.50;99.90;;;;;;5053860;28;20979;-52
2023/04/16 10:09:40;;;;;;;26.03;19.60;;;12.30;99.90;;;;;;5053711;28;20516;-51
2023/04/16 10:12:07;;;;;;;24.00;21.47;;;12.10;99.90;;;;;;5053887;28;20532;-52
2023/04/16 10:14:35;;;;;;;25.47;21.20;;;11.90;99.90;;;;;;5053841;28;20411;-52
2023/04/16 10:17:03;;;;;;;26.23;23.43;;;12.10;99.90;;;;;;5054017;28;20942;-49
2023/04/16 10:19:31;;;;;;;28.60;23.17;;;12.10;99.90;;;;;;5053441;28;20510;-52
2023/04/16 10:21:58;;;;;;;29.50;23.73;;;12.20;99.90;;;;;;5053925;28;20413;-52
2023/04/16 10:24:25;;;;;;;31.27;24.67;;;12.20;99.90;;;;;;5052757;28;20993;-51
2023/04/16 10:26:52;;;;;;;25.97;23.17;;;12.10;99.90;;;;;;5053695;28;20419;-51
2023/04/16 10:29:20;;;;;;;29.07;24.50;;;12.00;99.90;;;;;;5053304;28;20452;-51
2023/04/16 10:31:49;;;;;;;28.50;24.10;;;12.00;99.90;;;;;;5053654;28;20406;-52
2023/04/16 10:34:16;;;;;;;26.77;23.80;;;12.20;99.90;;;;;;5053252;28;20498;-52
2023/04/16 10:36:43;;;;;;;27.87;24.57;;;12.30;99.90;;;;;;5053596;28;20982;-53
2023/04/16 10:39:11;;;;;;;28.70;24.90;;;12.20;99.90;;;;;;5053258;28;20442;-51
2023/04/16 10:41:38;;;;;;;27.70;24.67;;;12.40;99.90;;;;;;5053658;28;20768;-50
2023/04/16 10:44:08;;;;;;;26.50;23.47;;;12.40;99.90;;;;;;5052927;28;20911;-51
2023/04/16 10:46:37;;;;;;;25.00;21.93;;;12.40;99.90;;;;;;5053396;28;20447;-52
2023/04/16 10:49:13;;;;;;;26.43;23.80;;;12.70;99.90;;;;;;5053190;28;20441;-51
2023/04/16 10:51:40;;;;;;;28.50;23.93;;;12.30;99.90;;;;;;5053708;28;20974;-52
2023/04/16 10:54:21;;;;;;;26.00;23.00;;;12.60;99.90;;;;;;5053219;28;20442;-52
2023/04/16 10:56:49;;;;;;;31.37;23.70;;;12.50;99.90;;;;;;5053185;28;20403;-51
2023/04/16 10:59:19;;;;;;;26.17;23.37;;;11.90;99.90;;;;;;5052612;28;20452;-52
2023/04/16 11:01:47;;;;;;;25.10;22.43;;;12.40;99.90;;;;;;5053464;28;20948;-52
2023/04/16 11:04:37;;;;;;;24.03;21.73;;;12.80;99.90;;;;;;5052781;28;20575;-51
2023/04/16 11:07:06;;;;;;;22.53;20.10;;;12.40;99.90;;;;;;5052780;28;20438;-51
2023/04/16 11:09:48;;;;;;;23.50;21.10;;;12.90;99.90;;;;;;5052820;28;20461;-53
2023/04/16 11:12:17;;;;;;;22.37;20.07;;;13.80;99.90;;;;;;5052872;28;20526;-51
2023/04/16 11:14:47;;;;;;;23.27;20.93;;;13.70;99.90;;;;;;5052817;28;20409;-52
2023/04/16 11:17:14;;;;;;;23.53;21.27;;;13.70;99.90;;;;;;5052550;28;20427;-51
2023/04/16 11:19:42;;;;;;;22.00;19.67;;;14.00;99.90;;;;;;5051816;28;20966;-52
2023/04/16 11:22:12;;;;;;;22.07;19.87;;;13.70;99.90;;;;;;5052490;28;20800;-52
2023/04/16 11:24:39;;;;;;;22.67;20.57;;;13.60;99.90;;;;;;5052983;28;20481;-51
2023/04/16 11:27:06;;;;;;;24.37;22.17;;;13.50;99.90;;;;;;5052919;28;20461;-52
2023/04/16 11:29:33;;;;;;;22.10;19.90;;;12.90;99.90;;;;;;5052267;28;20457;-51
2023/04/16 11:31:59;;;;;;;21.70;19.60;;;12.90;99.90;;;;;;5052644;28;20409;-51
2023/04/16 11:34:26;;;;;;;23.50;21.10;;;12.80;99.90;;;;;;5052298;28;20442;-53
2023/04/16 11:36:54;;;;;;;24.27;21.90;;;12.80;99.90;;;;;;5052293;28;20448;-52
2023/04/16 11:39:21;;;;;;;24.60;21.83;;;12.70;99.90;;;;;;5052071;28;20492;-52
2023/04/16 11:41:49;;;;;;;22.80;20.60;;;12.90;99.90;;;;;;5052054;28;20934;-51
2023/04/16 11:44:23;;;;;;;20.60;18.70;;;12.70;99.90;;;;;;5046904;28;20488;-51
2023/04/16 11:46:51;;;;;;;21.13;19.13;;;12.90;99.90;;;;;;5047393;28;20493;-51
2023/04/16 11:49:26;;;;;;;22.83;20.63;;;13.20;99.90;;;;;;5049571;28;21211;-51
2023/04/16 11:51:55;;;;;;;21.77;19.77;;;12.80;99.90;;;;;;5051863;28;20449;-53
2023/04/16 11:54:23;;;;;;;22.10;20.10;;;12.80;99.90;;;;;;5051343;28;20511;-52
2023/04/16 11:56:51;;;;;;;21.67;19.53;;;13.20;99.90;;;;;;5050620;28;20434;-50
2023/04/16 11:59:19;;;;;;;22.10;20.00;;;13.10;99.90;;;;;;5047531;28;20417;-51
2023/04/16 12:01:48;;;;;;;23.10;20.80;;;12.60;99.90;;;;;;5051194;28;20518;-50
2023/04/16 12:04:16;;;;;;;21.33;19.33;;;13.10;99.90;;;;;;5051959;28;20616;-51
2023/04/16 12:07:06;;;;;;;19.37;17.37;;;12.60;99.90;;;;;;5047486;28;20424;-52
2023/04/16 12:09:34;;;;;;;19.33;17.63;;;12.90;99.90;;;;;;5052922;28;20476;-53
2023/04/16 12:12:01;;;;;;;19.03;17.23;;;12.80;99.90;;;;;;5051712;28;20880;-52
2023/04/16 12:14:28;;;;;;;19.40;17.60;;;12.80;99.90;;;;;;5051896;28;20426;-52
2023/04/16 12:16:55;;;;;;;18.57;16.90;;;12.50;99.90;;;;;;5067052;28;20479;-51
2023/04/16 12:19:21;;;;;;;18.20;16.60;;;12.00;99.90;;;;;;5046756;28;20502;-51
2023/04/16 12:21:50;;;;;;;18.53;16.80;;;12.30;99.90;;;;;;5031811;28;20459;-51
2023/04/16 12:24:21;;;;;;;19.40;17.70;;;12.60;99.90;;;;;;5031159;28;20550;-52
2023/04/16 12:26:54;;;;;;;18.30;16.60;;;12.70;99.90;;;;;;5031207;28;20970;-53
2023/04/16 12:29:22;;;;;;;15.60;14.00;;;12.10;99.90;;;;;;5047960;28;20439;-52
2023/04/16 12:31:51;;;;;;;16.70;15.10;;;12.20;99.90;;;;;;5051474;28;20460;-53